createdAt,value
2015-02-22T00:00:01.117Z,99614
2015-02-22T00:00:11.376Z,99620
2015-02-22T00:00:21.640Z,99623
2015-02-22T00:00:31.855Z,99623
2015-02-22T00:00:42.091Z,99617
2015-02-22T00:00:52.307Z,99620
2015-02-22T00:01:02.505Z,99608
2015-02-22T00:01:12.710Z,99605
2015-02-22T00:01:22.932Z,99608
2015-02-22T00:01:33.165Z,99611
2015-02-22T00:01:43.392Z,99611
2015-02-22T00:01:53.607Z,99608
2015-02-22T00:02:03.851Z,99614
2015-02-22T00:02:14.085Z,99620
2015-02-22T00:02:24.283Z,99617
2015-02-22T00:02:34.503Z,99620
2015-02-22T00:02:45.176Z,99632
2015-02-22T00:02:55.385Z,99611
2015-02-22T00:03:05.582Z,99620
2015-02-22T00:03:15.794Z,99626
2015-02-22T00:03:26.013Z,99623
2015-02-22T00:03:36.231Z,99620
2015-02-22T00:03:46.410Z,99629
2015-02-22T00:03:56.584Z,99620
2015-02-22T00:04:06.803Z,99611
2015-02-22T00:04:17.003Z,99626
2015-02-22T00:04:27.238Z,99617
2015-02-22T00:04:37.440Z,99623
2015-02-22T00:04:47.872Z,99623
2015-02-22T00:04:58.144Z,99626
2015-02-22T00:05:08.382Z,99623
2015-02-22T00:05:18.590Z,99626
2015-02-22T00:05:28.778Z,99626
2015-02-22T00:05:38.997Z,99617
2015-02-22T00:05:49.207Z,99617
2015-02-22T00:05:59.488Z,99623
2015-02-22T00:06:09.694Z,99623
2015-02-22T00:06:19.896Z,99635
2015-02-22T00:06:30.091Z,99626
2015-02-22T00:06:40.315Z,99617
2015-02-22T00:06:50.536Z,99629
2015-02-22T00:07:00.761Z,99629
2015-02-22T00:07:10.966Z,99641
2015-02-22T00:07:21.149Z,99620
2015-02-22T00:07:31.365Z,99620
2015-02-22T00:07:41.680Z,99623
2015-02-22T00:07:51.923Z,99629
2015-02-22T00:08:02.186Z,99617
2015-02-22T00:08:12.396Z,99623
2015-02-22T00:08:22.586Z,99629
2015-02-22T00:08:32.874Z,99629
2015-02-22T00:08:43.507Z,99620
2015-02-22T00:08:54.102Z,99635
2015-02-22T00:09:04.283Z,99623
2015-02-22T00:09:15.094Z,99629
2015-02-22T00:09:25.335Z,99623
2015-02-22T00:09:35.585Z,99620
2015-02-22T00:09:45.835Z,99626
2015-02-22T00:09:56.049Z,99620
2015-02-22T00:10:06.245Z,99626
2015-02-22T00:10:16.496Z,99620
2015-02-22T00:10:26.763Z,99632
2015-02-22T00:10:37.017Z,99626
2015-02-22T00:10:47.213Z,99638
2015-02-22T00:10:57.442Z,99629
2015-02-22T00:11:07.706Z,99623
2015-02-22T00:11:17.917Z,99635
2015-02-22T00:11:28.128Z,99623
2015-02-22T00:11:38.336Z,99623
2015-02-22T00:11:48.555Z,99617
2015-02-22T00:11:58.741Z,99632
2015-02-22T00:12:08.941Z,99611
2015-02-22T00:12:19.149Z,99620
2015-02-22T00:12:29.372Z,99626
2015-02-22T00:12:39.567Z,99623
2015-02-22T00:12:49.774Z,99629
2015-02-22T00:12:59.982Z,99626
2015-02-22T00:13:10.178Z,99629
2015-02-22T00:13:20.866Z,99620
2015-02-22T00:13:31.055Z,99635
2015-02-22T00:13:41.283Z,99620
2015-02-22T00:13:51.477Z,99629
2015-02-22T00:14:01.684Z,99632
2015-02-22T00:14:11.908Z,99629
2015-02-22T00:14:22.095Z,99626
2015-02-22T00:14:32.258Z,99629
2015-02-22T00:14:42.485Z,99632
2015-02-22T00:14:52.687Z,99629
2015-02-22T00:15:02.907Z,99626
2015-02-22T00:15:13.108Z,99623
2015-02-22T00:15:23.314Z,99632
2015-02-22T00:15:33.541Z,99632
2015-02-22T00:15:43.734Z,99629
2015-02-22T00:15:53.979Z,99632
2015-02-22T00:16:04.170Z,99626
2015-02-22T00:16:14.383Z,99632
2015-02-22T00:16:24.589Z,99629
2015-02-22T00:16:34.845Z,99623
2015-02-22T00:16:45.036Z,99623
2015-02-22T00:16:55.234Z,99632
2015-02-22T00:17:05.461Z,99629
2015-02-22T00:17:17.137Z,99620
2015-02-22T00:17:27.354Z,99629
2015-02-22T00:17:37.602Z,99620
2015-02-22T00:17:47.832Z,99614
2015-02-22T00:17:58.018Z,99626
2015-02-22T00:18:08.187Z,99620
2015-02-22T00:18:18.377Z,99632
2015-02-22T00:18:28.608Z,99623
2015-02-22T00:18:38.809Z,99614
2015-02-22T00:18:49.038Z,99620
2015-02-22T00:18:59.224Z,99629
2015-02-22T00:19:09.441Z,99626
2015-02-22T00:19:19.655Z,99620
2015-02-22T00:19:29.854Z,99623
2015-02-22T00:19:40.049Z,99632
2015-02-22T00:19:50.243Z,99629
2015-02-22T00:20:00.437Z,99626
2015-02-22T00:20:10.650Z,99614
2015-02-22T00:20:20.858Z,99626
2015-02-22T00:20:31.071Z,99623
2015-02-22T00:20:41.289Z,99614
2015-02-22T00:20:51.508Z,99623
2015-02-22T00:21:01.717Z,99629
2015-02-22T00:21:11.917Z,99620
2015-02-22T00:21:22.124Z,99620
2015-02-22T00:21:32.350Z,99635
2015-02-22T00:21:42.554Z,99626
2015-02-22T00:21:52.757Z,99620
2015-02-22T00:22:02.954Z,99629
2015-02-22T00:22:13.139Z,99617
2015-02-22T00:22:23.317Z,99620
2015-02-22T00:22:33.510Z,99626
2015-02-22T00:22:43.705Z,99617
2015-02-22T00:22:53.917Z,99635
2015-02-22T00:23:04.102Z,99623
2015-02-22T00:23:14.302Z,99629
2015-02-22T00:23:24.527Z,99617
2015-02-22T00:23:34.755Z,99614
2015-02-22T00:23:44.970Z,99620
2015-02-22T00:23:55.208Z,99629
2015-02-22T00:24:05.485Z,99632
2015-02-22T00:24:15.814Z,99617
2015-02-22T00:24:26.206Z,99629
2015-02-22T00:24:36.493Z,99632
2015-02-22T00:24:46.778Z,99632
2015-02-22T00:24:57.023Z,99632
2015-02-22T00:25:07.284Z,99623
2015-02-22T00:25:17.543Z,99632
2015-02-22T00:25:27.786Z,99626
2015-02-22T00:25:38.028Z,99623
2015-02-22T00:25:48.224Z,99632
2015-02-22T00:25:58.410Z,99629
2015-02-22T00:26:08.587Z,99644
2015-02-22T00:26:18.797Z,99638
2015-02-22T00:26:29.064Z,99626
2015-02-22T00:26:39.293Z,99623
2015-02-22T00:26:49.470Z,99632
2015-02-22T00:26:59.678Z,99632
2015-02-22T00:27:09.854Z,99632
2015-02-22T00:27:20.043Z,99635
2015-02-22T00:27:30.239Z,99632
2015-02-22T00:27:40.458Z,99629
2015-02-22T00:27:50.641Z,99629
2015-02-22T00:28:00.841Z,99632
2015-02-22T00:28:11.022Z,99635
2015-02-22T00:28:21.223Z,99629
2015-02-22T00:28:31.416Z,99635
2015-02-22T00:28:41.619Z,99638
2015-02-22T00:28:51.825Z,99644
2015-02-22T00:29:02.023Z,99635
2015-02-22T00:29:12.226Z,99641
2015-02-22T00:29:22.455Z,99632
2015-02-22T00:29:32.661Z,99626
2015-02-22T00:29:42.864Z,99638
2015-02-22T00:29:53.100Z,99647
2015-02-22T00:30:03.280Z,99641
2015-02-22T00:30:13.486Z,99638
2015-02-22T00:30:23.653Z,99638
2015-02-22T00:30:33.875Z,99644
2015-02-22T00:30:44.098Z,99641
2015-02-22T00:30:54.301Z,99632
2015-02-22T00:31:04.510Z,99641
2015-02-22T00:31:14.716Z,99638
2015-02-22T00:31:24.927Z,99635
2015-02-22T00:31:35.110Z,99632
2015-02-22T00:31:45.348Z,99629
2015-02-22T00:31:55.539Z,99647
2015-02-22T00:32:05.746Z,99641
2015-02-22T00:32:15.934Z,99641
2015-02-22T00:32:26.132Z,99644
2015-02-22T00:32:36.332Z,99632
2015-02-22T00:32:46.571Z,99638
2015-02-22T00:32:56.755Z,99635
2015-02-22T00:33:06.963Z,99644
2015-02-22T00:33:17.176Z,99641
2015-02-22T00:33:27.367Z,99649
2015-02-22T00:33:37.594Z,99641
2015-02-22T00:33:47.788Z,99644
2015-02-22T00:33:57.997Z,99644
2015-02-22T00:34:08.186Z,99641
2015-02-22T00:34:18.375Z,99635
2015-02-22T00:34:28.576Z,99632
2015-02-22T00:34:38.747Z,99632
2015-02-22T00:34:48.957Z,99644
2015-02-22T00:34:59.134Z,99647
2015-02-22T00:35:09.360Z,99641
2015-02-22T00:35:19.530Z,99649
2015-02-22T00:35:29.729Z,99641
2015-02-22T00:35:39.934Z,99649
2015-02-22T00:35:50.176Z,99649
2015-02-22T00:36:00.387Z,99644
2015-02-22T00:36:10.578Z,99644
2015-02-22T00:36:20.792Z,99652
2015-02-22T00:36:31.028Z,99644
2015-02-22T00:36:41.236Z,99647
2015-02-22T00:36:51.440Z,99655
2015-02-22T00:37:01.670Z,99641
2015-02-22T00:37:11.860Z,99647
2015-02-22T00:37:22.066Z,99647
2015-02-22T00:37:32.264Z,99649
2015-02-22T00:37:42.494Z,99644
2015-02-22T00:37:52.705Z,99641
2015-02-22T00:38:03.481Z,99641
2015-02-22T00:38:13.697Z,99641
2015-02-22T00:38:23.896Z,99641
2015-02-22T00:38:34.085Z,99647
2015-02-22T00:38:44.284Z,99644
2015-02-22T00:38:54.494Z,99641
2015-02-22T00:39:04.700Z,99652
2015-02-22T00:39:14.913Z,99649
2015-02-22T00:39:25.145Z,99644
2015-02-22T00:39:35.361Z,99635
2015-02-22T00:39:45.567Z,99652
2015-02-22T00:39:55.807Z,99649
2015-02-22T00:40:06.047Z,99647
2015-02-22T00:40:16.248Z,99641
2015-02-22T00:40:26.490Z,99647
2015-02-22T00:40:36.734Z,99649
2015-02-22T00:40:46.944Z,99649
2015-02-22T00:40:57.297Z,99641
2015-02-22T00:41:07.512Z,99644
2015-02-22T00:41:17.803Z,99644
2015-02-22T00:41:28.029Z,99649
2015-02-22T00:41:38.289Z,99649
2015-02-22T00:41:48.529Z,99644
2015-02-22T00:41:58.713Z,99652
2015-02-22T00:42:08.916Z,99647
2015-02-22T00:42:19.113Z,99647
2015-02-22T00:42:29.323Z,99641
2015-02-22T00:42:39.542Z,99638
2015-02-22T00:42:49.733Z,99644
2015-02-22T00:42:59.933Z,99649
2015-02-22T00:43:10.120Z,99638
2015-02-22T00:43:20.308Z,99647
2015-02-22T00:43:30.546Z,99649
2015-02-22T00:43:40.772Z,99652
2015-02-22T00:43:50.985Z,99652
2015-02-22T00:44:01.185Z,99652
2015-02-22T00:44:11.406Z,99647
2015-02-22T00:44:21.593Z,99652
2015-02-22T00:44:31.774Z,99644
2015-02-22T00:44:42.030Z,99641
2015-02-22T00:44:52.183Z,99641
2015-02-22T00:45:02.396Z,99647
2015-02-22T00:45:12.590Z,99644
2015-02-22T00:45:22.824Z,99652
2015-02-22T00:45:33.050Z,99647
2015-02-22T00:45:43.231Z,99644
2015-02-22T00:45:53.435Z,99652
2015-02-22T00:46:03.637Z,99647
2015-02-22T00:46:13.850Z,99641
2015-02-22T00:46:24.023Z,99644
2015-02-22T00:46:34.237Z,99647
2015-02-22T00:46:44.418Z,99655
2015-02-22T00:46:54.611Z,99644
2015-02-22T00:47:04.847Z,99644
2015-02-22T00:47:15.039Z,99641
2015-02-22T00:47:25.256Z,99647
2015-02-22T00:47:35.448Z,99652
2015-02-22T00:47:45.656Z,99647
2015-02-22T00:47:55.821Z,99649
2015-02-22T00:48:06.021Z,99641
2015-02-22T00:48:16.206Z,99644
2015-02-22T00:48:27.058Z,99649
2015-02-22T00:48:37.299Z,99644
2015-02-22T00:48:47.493Z,99652
2015-02-22T00:48:57.703Z,99652
2015-02-22T00:49:07.916Z,99647
2015-02-22T00:49:18.119Z,99647
2015-02-22T00:49:28.329Z,99652
2015-02-22T00:49:38.530Z,99644
2015-02-22T00:49:48.724Z,99649
2015-02-22T00:49:58.929Z,99647
2015-02-22T00:50:09.126Z,99652
2015-02-22T00:50:19.306Z,99641
2015-02-22T00:50:29.510Z,99649
2015-02-22T00:50:39.713Z,99649
2015-02-22T00:50:49.915Z,99655
2015-02-22T00:51:00.111Z,99652
2015-02-22T00:51:10.316Z,99652
2015-02-22T00:51:20.512Z,99644
2015-02-22T00:51:30.715Z,99649
2015-02-22T00:51:40.904Z,99649
2015-02-22T00:51:51.107Z,99635
2015-02-22T00:52:01.294Z,99652
2015-02-22T00:52:11.497Z,99644
2015-02-22T00:52:21.697Z,99638
2015-02-22T00:52:31.884Z,99649
2015-02-22T00:52:42.060Z,99632
2015-02-22T00:52:52.266Z,99647
2015-02-22T00:53:02.468Z,99647
2015-02-22T00:53:12.679Z,99638
2015-02-22T00:53:22.854Z,99647
2015-02-22T00:53:33.076Z,99649
2015-02-22T00:53:43.453Z,99644
2015-02-22T00:53:53.651Z,99649
2015-02-22T00:54:03.863Z,99652
2015-02-22T00:54:14.125Z,99647
2015-02-22T00:54:24.333Z,99647
2015-02-22T00:54:34.569Z,99647
2015-02-22T00:54:45.319Z,99647
2015-02-22T00:54:55.530Z,99652
2015-02-22T00:55:05.748Z,99644
2015-02-22T00:55:15.934Z,99662
2015-02-22T00:55:26.132Z,99652
2015-02-22T00:55:36.350Z,99647
2015-02-22T00:55:46.563Z,99644
2015-02-22T00:55:56.762Z,99647
2015-02-22T00:56:07.001Z,99652
2015-02-22T00:56:17.205Z,99647
2015-02-22T00:56:27.393Z,99652
2015-02-22T00:56:37.611Z,99652
2015-02-22T00:56:47.778Z,99647
2015-02-22T00:56:57.997Z,99652
2015-02-22T00:57:08.187Z,99647
2015-02-22T00:57:18.395Z,99644
2015-02-22T00:57:28.596Z,99652
2015-02-22T00:57:38.817Z,99644
2015-02-22T00:57:49.036Z,99665
2015-02-22T00:57:59.229Z,99649
2015-02-22T00:58:09.423Z,99647
2015-02-22T00:58:19.623Z,99655
2015-02-22T00:58:29.830Z,99655
2015-02-22T00:58:40.028Z,99652
2015-02-22T00:58:50.247Z,99655
2015-02-22T00:59:00.449Z,99659
2015-02-22T00:59:10.656Z,99655
2015-02-22T00:59:20.863Z,99649
2015-02-22T00:59:31.082Z,99665
2015-02-22T00:59:41.281Z,99655
2015-02-22T00:59:51.468Z,99658
2015-02-22T01:00:01.698Z,99652
2015-02-22T01:00:11.902Z,99652
2015-02-22T01:00:22.079Z,99659
2015-02-22T01:00:32.274Z,99659
2015-02-22T01:00:42.509Z,99662
2015-02-22T01:00:52.710Z,99655
2015-02-22T01:01:02.914Z,99665
2015-02-22T01:01:13.117Z,99662
2015-02-22T01:01:23.315Z,99665
2015-02-22T01:01:33.511Z,99658
2015-02-22T01:01:43.811Z,99671
2015-02-22T01:01:54.005Z,99662
2015-02-22T01:02:04.180Z,99671
2015-02-22T01:02:14.376Z,99665
2015-02-22T01:02:24.584Z,99662
2015-02-22T01:02:34.789Z,99659
2015-02-22T01:02:44.985Z,99665
2015-02-22T01:02:55.167Z,99659
2015-02-22T01:03:05.419Z,99665
2015-02-22T01:03:15.626Z,99665
2015-02-22T01:03:25.837Z,99668
2015-02-22T01:03:36.034Z,99662
2015-02-22T01:03:46.243Z,99665
2015-02-22T01:03:56.475Z,99665
2015-02-22T01:04:06.674Z,99659
2015-02-22T01:04:16.883Z,99662
2015-02-22T01:04:27.077Z,99674
2015-02-22T01:04:37.711Z,99674
2015-02-22T01:04:48.301Z,99665
2015-02-22T01:04:58.512Z,99671
2015-02-22T01:05:08.859Z,99671
2015-02-22T01:05:19.053Z,99671
2015-02-22T01:05:29.232Z,99665
2015-02-22T01:05:39.627Z,99674
2015-02-22T01:05:49.882Z,99674
2015-02-22T01:06:00.072Z,99671
2015-02-22T01:06:11.029Z,99671
2015-02-22T01:06:21.215Z,99668
2015-02-22T01:06:31.423Z,99668
2015-02-22T01:06:41.613Z,99671
2015-02-22T01:06:51.839Z,99674
2015-02-22T01:07:02.037Z,99674
2015-02-22T01:07:12.249Z,99674
2015-02-22T01:07:22.480Z,99671
2015-02-22T01:07:32.669Z,99671
2015-02-22T01:07:42.870Z,99671
2015-02-22T01:07:53.062Z,99677
2015-02-22T01:08:03.266Z,99674
2015-02-22T01:08:13.470Z,99668
2015-02-22T01:08:23.685Z,99671
2015-02-22T01:08:33.856Z,99674
2015-02-22T01:08:44.041Z,99668
2015-02-22T01:08:54.251Z,99671
2015-02-22T01:09:04.462Z,99668
2015-02-22T01:09:14.659Z,99671
2015-02-22T01:09:24.844Z,99668
2015-02-22T01:09:35.047Z,99671
2015-02-22T01:09:45.225Z,99677
2015-02-22T01:09:55.479Z,99674
2015-02-22T01:10:05.655Z,99677
2015-02-22T01:10:15.857Z,99680
2015-02-22T01:10:26.033Z,99674
2015-02-22T01:10:36.266Z,99674
2015-02-22T01:10:46.482Z,99680
2015-02-22T01:10:56.704Z,99665
2015-02-22T01:11:06.893Z,99677
2015-02-22T01:11:17.082Z,99677
2015-02-22T01:11:27.297Z,99674
2015-02-22T01:11:37.491Z,99674
2015-02-22T01:11:47.704Z,99674
2015-02-22T01:11:57.896Z,99680
2015-02-22T01:12:08.104Z,99683
2015-02-22T01:12:18.298Z,99677
2015-02-22T01:12:28.563Z,99671
2015-02-22T01:12:38.753Z,99677
2015-02-22T01:12:48.949Z,99680
2015-02-22T01:12:59.159Z,99683
2015-02-22T01:13:09.343Z,99692
2015-02-22T01:13:19.570Z,99683
2015-02-22T01:13:29.762Z,99686
2015-02-22T01:13:39.980Z,99680
2015-02-22T01:13:50.268Z,99683
2015-02-22T01:14:00.467Z,99683
2015-02-22T01:14:10.683Z,99686
2015-02-22T01:14:20.875Z,99686
2015-02-22T01:14:31.075Z,99680
2015-02-22T01:14:41.274Z,99689
2015-02-22T01:14:51.475Z,99677
2015-02-22T01:15:01.928Z,99680
2015-02-22T01:15:12.149Z,99680
2015-02-22T01:15:22.323Z,99695
2015-02-22T01:15:32.544Z,99692
2015-02-22T01:15:42.743Z,99689
2015-02-22T01:15:52.940Z,99683
2015-02-22T01:16:03.136Z,99701
2015-02-22T01:16:13.322Z,99695
2015-02-22T01:16:23.546Z,99695
2015-02-22T01:16:33.739Z,99695
2015-02-22T01:16:43.936Z,99692
2015-02-22T01:16:54.123Z,99689
2015-02-22T01:17:04.324Z,99698
2015-02-22T01:17:14.508Z,99695
2015-02-22T01:17:24.726Z,99698
2015-02-22T01:17:34.922Z,99695
2015-02-22T01:17:45.127Z,99695
2015-02-22T01:17:55.328Z,99695
2015-02-22T01:18:05.541Z,99698
2015-02-22T01:18:15.768Z,99695
2015-02-22T01:18:25.949Z,99689
2015-02-22T01:18:36.163Z,99695
2015-02-22T01:18:46.347Z,99701
2015-02-22T01:18:56.553Z,99701
2015-02-22T01:19:06.757Z,99698
2015-02-22T01:19:16.944Z,99695
2015-02-22T01:19:27.141Z,99698
2015-02-22T01:19:37.337Z,99692
2015-02-22T01:19:47.538Z,99692
2015-02-22T01:19:57.740Z,99695
2015-02-22T01:20:07.954Z,99695
2015-02-22T01:20:18.167Z,99695
2015-02-22T01:20:28.407Z,99701
2015-02-22T01:20:38.629Z,99698
2015-02-22T01:20:48.890Z,99701
2015-02-22T01:20:59.101Z,99701
2015-02-22T01:21:09.297Z,99692
2015-02-22T01:21:19.564Z,99701
2015-02-22T01:21:29.747Z,99698
2015-02-22T01:21:39.972Z,99701
2015-02-22T01:21:50.205Z,99707
2015-02-22T01:22:00.397Z,99704
2015-02-22T01:22:10.585Z,99701
2015-02-22T01:22:20.784Z,99701
2015-02-22T01:22:31.035Z,99707
2015-02-22T01:22:41.233Z,99695
2015-02-22T01:22:51.456Z,99704
2015-02-22T01:23:01.744Z,99707
2015-02-22T01:23:11.957Z,99695
2015-02-22T01:23:22.128Z,99701
2015-02-22T01:23:32.331Z,99701
2015-02-22T01:23:42.525Z,99701
2015-02-22T01:23:52.718Z,99695
2015-02-22T01:24:04.013Z,99701
2015-02-22T01:24:14.207Z,99695
2015-02-22T01:24:24.428Z,99704
2015-02-22T01:24:34.667Z,99701
2015-02-22T01:24:44.895Z,99701
2015-02-22T01:24:55.099Z,99701
2015-02-22T01:25:05.289Z,99701
2015-02-22T01:25:15.497Z,99707
2015-02-22T01:25:25.703Z,99713
2015-02-22T01:25:35.902Z,99707
2015-02-22T01:25:46.081Z,99713
2015-02-22T01:25:56.283Z,99707
2015-02-22T01:26:06.503Z,99713
2015-02-22T01:26:16.700Z,99701
2015-02-22T01:26:26.920Z,99713
2015-02-22T01:26:37.147Z,99713
2015-02-22T01:26:47.407Z,99704
2015-02-22T01:26:57.612Z,99710
2015-02-22T01:27:07.824Z,99701
2015-02-22T01:27:18.014Z,99713
2015-02-22T01:27:28.183Z,99704
2015-02-22T01:27:38.376Z,99701
2015-02-22T01:27:48.579Z,99713
2015-02-22T01:27:58.792Z,99704
2015-02-22T01:28:09.467Z,99719
2015-02-22T01:28:19.734Z,99707
2015-02-22T01:28:29.917Z,99710
2015-02-22T01:28:40.114Z,99704
2015-02-22T01:28:50.309Z,99713
2015-02-22T01:29:00.507Z,99719
2015-02-22T01:29:10.716Z,99707
2015-02-22T01:29:20.908Z,99713
2015-02-22T01:29:31.126Z,99704
2015-02-22T01:29:41.311Z,99716
2015-02-22T01:29:51.524Z,99716
2015-02-22T01:30:01.714Z,99713
2015-02-22T01:30:11.936Z,99719
2015-02-22T01:30:22.123Z,99710
2015-02-22T01:30:32.313Z,99722
2015-02-22T01:30:42.509Z,99722
2015-02-22T01:30:52.710Z,99713
2015-02-22T01:31:03.327Z,99710
2015-02-22T01:31:13.653Z,99725
2015-02-22T01:31:23.848Z,99722
2015-02-22T01:31:34.037Z,99722
2015-02-22T01:31:44.218Z,99725
2015-02-22T01:31:54.413Z,99728
2015-02-22T01:32:04.652Z,99722
2015-02-22T01:32:14.849Z,99713
2015-02-22T01:32:25.515Z,99719
2015-02-22T01:32:36.677Z,99713
2015-02-22T01:32:46.876Z,99713
2015-02-22T01:32:57.083Z,99719
2015-02-22T01:33:07.289Z,99725
2015-02-22T01:33:17.488Z,99728
2015-02-22T01:33:27.672Z,99722
2015-02-22T01:33:37.865Z,99713
2015-02-22T01:33:48.039Z,99716
2015-02-22T01:33:58.227Z,99713
2015-02-22T01:34:08.405Z,99728
2015-02-22T01:34:18.607Z,99719
2015-02-22T01:34:28.823Z,99728
2015-02-22T01:34:39.033Z,99725
2015-02-22T01:34:49.232Z,99728
2015-02-22T01:34:59.422Z,99719
2015-02-22T01:35:09.616Z,99719
2015-02-22T01:35:19.810Z,99722
2015-02-22T01:35:30.008Z,99725
2015-02-22T01:35:40.254Z,99719
2015-02-22T01:35:50.471Z,99728
2015-02-22T01:36:00.679Z,99719
2015-02-22T01:36:10.886Z,99719
2015-02-22T01:36:21.618Z,99716
2015-02-22T01:36:31.823Z,99716
2015-02-22T01:36:42.006Z,99725
2015-02-22T01:36:52.238Z,99707
2015-02-22T01:37:03.038Z,99728
2015-02-22T01:37:13.253Z,99716
2015-02-22T01:37:23.441Z,99728
2015-02-22T01:37:33.663Z,99725
2015-02-22T01:37:43.845Z,99716
2015-02-22T01:37:54.036Z,99707
2015-02-22T01:38:04.243Z,99725
2015-02-22T01:38:14.446Z,99719
2015-02-22T01:38:24.635Z,99713
2015-02-22T01:38:34.872Z,99722
2015-02-22T01:38:45.064Z,99716
2015-02-22T01:38:55.258Z,99719
2015-02-22T01:39:05.456Z,99719
2015-02-22T01:39:15.653Z,99722
2015-02-22T01:39:25.862Z,99719
2015-02-22T01:39:36.068Z,99713
2015-02-22T01:39:46.263Z,99719
2015-02-22T01:39:56.454Z,99713
2015-02-22T01:40:06.627Z,99722
2015-02-22T01:40:16.834Z,99737
2015-02-22T01:40:27.052Z,99725
2015-02-22T01:40:37.256Z,99719
2015-02-22T01:40:47.458Z,99719
2015-02-22T01:40:57.670Z,99725
2015-02-22T01:41:07.852Z,99719
2015-02-22T01:41:18.048Z,99731
2015-02-22T01:41:28.240Z,99734
2015-02-22T01:41:38.433Z,99731
2015-02-22T01:41:49.076Z,99719
2015-02-22T01:41:59.284Z,99728
2015-02-22T01:42:09.490Z,99731
2015-02-22T01:42:19.652Z,99719
2015-02-22T01:42:29.851Z,99725
2015-02-22T01:42:40.041Z,99728
2015-02-22T01:42:50.245Z,99731
2015-02-22T01:43:00.435Z,99722
2015-02-22T01:43:10.629Z,99719
2015-02-22T01:43:20.825Z,99731
2015-02-22T01:43:31.046Z,99744
2015-02-22T01:43:41.246Z,99731
2015-02-22T01:43:51.463Z,99728
2015-02-22T01:44:01.659Z,99731
2015-02-22T01:44:11.850Z,99728
2015-02-22T01:44:22.060Z,99725
2015-02-22T01:44:32.244Z,99734
2015-02-22T01:44:42.458Z,99731
2015-02-22T01:44:52.670Z,99725
2015-02-22T01:45:02.889Z,99725
2015-02-22T01:45:13.065Z,99731
2015-02-22T01:45:23.264Z,99725
2015-02-22T01:45:33.475Z,99731
2015-02-22T01:45:43.655Z,99728
2015-02-22T01:45:53.853Z,99731
2015-02-22T01:46:04.033Z,99731
2015-02-22T01:46:14.251Z,99731
2015-02-22T01:46:24.429Z,99734
2015-02-22T01:46:35.151Z,99728
2015-02-22T01:46:45.688Z,99722
2015-02-22T01:46:55.878Z,99728
2015-02-22T01:47:06.075Z,99737
2015-02-22T01:47:16.283Z,99725
2015-02-22T01:47:26.472Z,99725
2015-02-22T01:47:36.644Z,99731
2015-02-22T01:47:46.868Z,99728
2015-02-22T01:47:57.052Z,99731
2015-02-22T01:48:07.254Z,99737
2015-02-22T01:48:17.461Z,99725
2015-02-22T01:48:27.669Z,99725
2015-02-22T01:48:37.853Z,99725
2015-02-22T01:48:48.067Z,99737
2015-02-22T01:48:58.256Z,99728
2015-02-22T01:49:08.438Z,99731
2015-02-22T01:49:18.639Z,99731
2015-02-22T01:49:28.826Z,99731
2015-02-22T01:49:39.035Z,99738
2015-02-22T01:49:49.229Z,99741
2015-02-22T01:49:59.440Z,99737
2015-02-22T01:50:09.628Z,99747
2015-02-22T01:50:19.827Z,99731
2015-02-22T01:50:30.221Z,99728
2015-02-22T01:50:40.494Z,99731
2015-02-22T01:50:50.685Z,99734
2015-02-22T01:51:00.872Z,99741
2015-02-22T01:51:11.091Z,99731
2015-02-22T01:51:21.278Z,99734
2015-02-22T01:51:31.497Z,99728
2015-02-22T01:51:41.688Z,99734
2015-02-22T01:51:51.885Z,99731
2015-02-22T01:52:02.112Z,99731
2015-02-22T01:52:12.308Z,99737
2015-02-22T01:52:22.518Z,99737
2015-02-22T01:52:32.740Z,99741
2015-02-22T01:52:42.945Z,99731
2015-02-22T01:52:53.134Z,99734
2015-02-22T01:53:03.346Z,99741
2015-02-22T01:53:13.524Z,99741
2015-02-22T01:53:23.707Z,99734
2015-02-22T01:53:33.918Z,99731
2015-02-22T01:53:44.136Z,99725
2015-02-22T01:53:54.326Z,99744
2015-02-22T01:54:04.533Z,99734
2015-02-22T01:54:14.734Z,99734
2015-02-22T01:54:24.921Z,99734
2015-02-22T01:54:35.144Z,99731
2015-02-22T01:54:45.345Z,99744
2015-02-22T01:54:55.541Z,99741
2015-02-22T01:55:05.737Z,99738
2015-02-22T01:55:15.928Z,99735
2015-02-22T01:55:26.116Z,99741
2015-02-22T01:55:36.318Z,99735
2015-02-22T01:55:46.530Z,99735
2015-02-22T01:55:56.728Z,99728
2015-02-22T01:56:06.938Z,99738
2015-02-22T01:56:17.151Z,99747
2015-02-22T01:56:27.334Z,99744
2015-02-22T01:56:37.531Z,99744
2015-02-22T01:56:47.716Z,99741
2015-02-22T01:56:57.921Z,99741
2015-02-22T01:57:08.105Z,99747
2015-02-22T01:57:18.340Z,99744
2015-02-22T01:57:28.533Z,99750
2015-02-22T01:57:38.752Z,99741
2015-02-22T01:57:48.961Z,99750
2015-02-22T01:57:59.159Z,99747
2015-02-22T01:58:09.347Z,99744
2015-02-22T01:58:19.558Z,99735
2015-02-22T01:58:29.764Z,99738
2015-02-22T01:58:39.950Z,99747
2015-02-22T01:58:50.155Z,99756
2015-02-22T01:59:00.340Z,99744
2015-02-22T01:59:10.564Z,99753
2015-02-22T01:59:20.763Z,99741
2015-02-22T01:59:30.961Z,99753
2015-02-22T01:59:41.148Z,99741
2015-02-22T01:59:51.334Z,99750
2015-02-22T02:00:01.532Z,99741
2015-02-22T02:00:11.730Z,99744
2015-02-22T02:00:21.924Z,99750
2015-02-22T02:00:32.112Z,99753
2015-02-22T02:00:42.318Z,99750
2015-02-22T02:00:52.498Z,99753
2015-02-22T02:01:02.718Z,99744
2015-02-22T02:01:12.921Z,99750
2015-02-22T02:01:23.118Z,99744
2015-02-22T02:01:33.315Z,99747
2015-02-22T02:01:43.503Z,99741
2015-02-22T02:01:53.711Z,99744
2015-02-22T02:02:03.907Z,99738
2015-02-22T02:02:14.108Z,99756
2015-02-22T02:02:24.280Z,99747
2015-02-22T02:02:34.520Z,99753
2015-02-22T02:02:44.715Z,99756
2015-02-22T02:02:54.913Z,99750
2015-02-22T02:03:05.120Z,99756
2015-02-22T02:03:15.322Z,99744
2015-02-22T02:03:25.501Z,99759
2015-02-22T02:03:35.691Z,99759
2015-02-22T02:03:45.890Z,99747
2015-02-22T02:03:56.077Z,99744
2015-02-22T02:04:06.285Z,99750
2015-02-22T02:04:16.483Z,99756
2015-02-22T02:04:26.702Z,99750
2015-02-22T02:04:36.922Z,99753
2015-02-22T02:04:47.158Z,99759
2015-02-22T02:04:57.365Z,99759
2015-02-22T02:05:07.549Z,99747
2015-02-22T02:05:17.733Z,99747
2015-02-22T02:05:27.937Z,99747
2015-02-22T02:05:38.202Z,99753
2015-02-22T02:05:48.386Z,99747
2015-02-22T02:05:58.602Z,99753
2015-02-22T02:06:08.809Z,99753
2015-02-22T02:06:18.991Z,99753
2015-02-22T02:06:29.222Z,99747
2015-02-22T02:06:39.384Z,99750
2015-02-22T02:06:49.608Z,99759
2015-02-22T02:06:59.790Z,99753
2015-02-22T02:07:09.982Z,99747
2015-02-22T02:07:20.188Z,99756
2015-02-22T02:07:30.378Z,99753
2015-02-22T02:07:40.588Z,99756
2015-02-22T02:07:51.124Z,99753
2015-02-22T02:08:01.316Z,99762
2015-02-22T02:08:11.516Z,99750
2015-02-22T02:08:21.733Z,99753
2015-02-22T02:08:31.918Z,99759
2015-02-22T02:08:42.108Z,99756
2015-02-22T02:08:52.320Z,99759
2015-02-22T02:09:02.520Z,99759
2015-02-22T02:09:12.715Z,99759
2015-02-22T02:09:22.904Z,99762
2015-02-22T02:09:33.112Z,99756
2015-02-22T02:09:43.313Z,99759
2015-02-22T02:09:53.514Z,99759
2015-02-22T02:10:03.715Z,99747
2015-02-22T02:10:13.917Z,99747
2015-02-22T02:10:24.135Z,99762
2015-02-22T02:10:34.339Z,99759
2015-02-22T02:10:44.536Z,99753
2015-02-22T02:10:54.734Z,99750
2015-02-22T02:11:04.920Z,99753
2015-02-22T02:11:15.113Z,99762
2015-02-22T02:11:25.327Z,99759
2015-02-22T02:11:35.521Z,99762